Pagrindinis puslapis
METAR-TAF:

METAR-TAF

Oro uostai :

Bornmutas, Anglija

platuma: 50-47N, ilguma: 001-50W, Aukštis: 11 m

Dabartinis oras

Ataskaita buvo paskelbta 22 minutes, ne 14:20 UTC
Vėjas 12 kt iš Pietvakarių
Temperatūra 10°C
Drėgmė 93%
Slėgis 1020 hPa
Matomumas 10 km arba daugiau
Išsisklaidę debesys ne aukštis 1200 ft
Su prošvaistėmis ne aukštis 2000 ft

METAR: EGHH 191420Z 23012KT 9999 SCT012 BKN020 10/09 Q1020

Laikas: 14:42 (14:42 UTC)

Prognozė

Ataskaita buvo paskelbta 39 minutes, ne 14:03 UTC
Prognozė galioja nuo 19 metu 15 UTC su 19 metu 24 UTC
Vėjas 10 kt iš Pietvakarių
Matomumas 10 km arba daugiau
Su prošvaistėmis ne aukštis 2000 ft
Laikinai
nuo 19 metu 15 UTC su 19 metu 24 UTC
Vėjas 16 kt iš Vakarų/Pietvakarių su gūsio iki 28 kt
Su prošvaistėmis ne aukštis 1400 ft
Tikimybė 30% :
Laikinai
nuo 19 metu 15 UTC su 19 metu 24 UTC
Matomumas: 7000 m
Su prošvaistėmis ne aukštis 800 ft
lietus, dulksna

TAF: EGHH 191403Z 1915/1924 22010KT 9999 BKN020 TEMPO 1915/1924 24016G28KT BKN014 PROB30 TEMPO 1915/1924 7000 -RADZ BKN008

Orai ataskaitas ir orų prognozės (METAR, TAF).

turimą stotys yra geltonos ir raudonos taškus žemėlapyje.

Perkelti pele per norėdami pamatyti stoties vardą.

Tada spustelėkite, norėdami matyti oro stebėjimo ir prognozės.

Norėdami pakeisti žemėlapį: spustelėkite ant žalios mygtukų su juodo kryžiaus žemyn,; žalią mygtuką su brūkšneliu, jei norite nutolinti; arba žalių rodyklių gretimoms žemėlapius.


METAR-TAF: